Terminal Aerodrome Forecast
Issued by NWS Flagstaff, AZ

Home | Current Version | Previous Version | Text Only | Print | Product List | Glossary On
Versions: 1 2 3 4 5 6 7 8 9 10 11 12 13 14 15 16 17 18 19
000
FTUS45 KFGZ 281700 RRA
TAFFLG
TAF
KFLG 281741Z 2818/0118 22020G30KT P6SM -SHSNRA SCT009 OVC015
      TEMPO 2818/2819 5SM -SHSNRA BR BKN009
     FM281900 22020G35KT P6SM -SHSNRA SCT012 BKN025
      TEMPO 2819/2823 5SM -SHRASN BR OVC009
     FM010200 23012G23KT 5SM -SHSN BR SCT010 OVC015
     FM010400 23010KT 4SM -SHSN BR SCT008 OVC012
     FM011500 21008KT 5SM SHRA BR SCT004 BKN008 OVC010=

USA.gov is the U.S. government's official web portal to all federal, state and local government web resources and services.